Ouricuri, Brazil
Current Conditions -  °F | °C
As of 10:00 AM on Saturday 01 Nov 2014 (Local Time) from SBJU Reporting Station
Broken Clouds Broken Clouds  
Wind Chill: 86°   Ceiling: 2100
Heat Index: 88°   Visibility: 6mi
Dew Point: 66°   Wind: 9mph
Humidity: 51%   Direction: 170°S
Pressure: 30.06"   Gusts: NA
Location:  7.88°S, 40.08°W
Report Text: SBJU 011300Z 17008KT 9999 BKN021 30/19 Q1018
Loading
Personal Weather Stations






























Interactive Weather Map
Tropical Storm Tracking
New forecast layout! Learn more

10-Day Weather Forecast

Advertisements
Track Severe Weather on mobile